Latest Weather Observations for Sheoaks

IDV60901

Issued at 11:55 am EDT Thursday 23 October 2014 (issued every 10 minutes, with the page automatically refreshed every 10 minutes)

About weather observations | Map of Melbourne area stations | Latest observations for Melbourne area | Other Formats
Station Details ID: 087168 Name: SHEOAKS Lat: -37.91 Lon: 144.13 Height: 236.7 m
Data from the previous 72 hours. | See also: Recent months at Sheoaks
Date/Time
EDT
Tmp

°C
App
Tmp
°C
Dew
Point
°C
Rel
Hum
%
Delta-T

°C
Wind Press
QNH
hPa
Press
MSL
hPa
Rain
since
9 am
mm
Dir
 
Spd
km/h
Gust
km/h
Spd
kts
Gust
kts
23/11:30am 13.5 11.5 11.6 88 1.0 ESE 13 19 7 10 1020.0 1020.0 0.0
23/11:00am 12.8 11.2 11.5 92 0.7 ESE 11 17 6 9 1020.1 1020.1 0.0
23/10:30am 12.5 10.9 11.7 95 0.4 ESE 11 19 6 10 1020.3 1020.3 0.0
23/10:00am 12.3 10.8 11.8 97 0.3 SE 11 15 6 8 1020.7 1020.6 0.0
23/09:30am 12.2 10.6 11.7 97 0.3 ESE 11 17 6 9 1020.8 1020.7 0.0
23/09:00am 12.4 11.7 12.1 98 0.2 SE 7 13 4 7 1020.9 1020.8 0.0
23/08:30am 12.2 10.7 11.9 98 0.2 SSE 11 17 6 9 1020.6 1020.5 0.0
23/08:00am 12.4 11.8 12.2 99 0.1 SSE 7 13 4 7 1020.5 1020.4 0.0
23/07:30am 12.3 11.2 12.1 99 0.1 SE 9 15 5 8 1020.2 1020.2 0.0
23/07:00am 12.4 11.4 12.2 99 0.1 SE 9 13 5 7 1020.2 1020.2 0.0
23/06:30am 12.5 11.5 12.3 99 0.1 SSE 9 11 5 6 1019.8 1019.8 0.0
23/06:00am 12.6 12.2 12.4 99 0.1 S 6 7 3 4 1019.4 1019.4 0.0
23/05:30am 12.6 12.0 12.3 98 0.2 S 7 11 4 6 1019.3 1019.3 0.0
23/05:00am 12.7 12.2 12.2 97 0.3 SSE 6 9 3 5 1019.1 1019.1 0.0
23/04:30am 12.7 12.6 12.1 96 0.3 SSE 4 6 2 3 1019.1 1019.1 0.0
23/04:00am 12.9 12.4 12.0 94 0.5 SE 6 7 3 4 1019.4 1019.4 0.0
23/03:30am 12.9 12.1 11.8 93 0.6 SSE 7 13 4 7 1019.3 1019.3 0.0
23/03:00am 13.2 13.1 12.1 93 0.6 SSE 4 7 2 4 1019.3 1019.3 0.0
23/02:30am 13.4 13.7 12.1 92 0.7 SW 2 4 1 2 1019.3 1019.3 0.0
23/02:00am 13.4 13.4 12.3 93 0.6 SW 4 7 2 4 1019.3 1019.3 0.0
23/01:30am 13.4 13.0 12.3 93 0.6 WSW 6 11 3 6 1019.6 1019.6 0.0
23/01:00am 13.4 12.0 12.3 93 0.6 W 11 17 6 9 1019.7 1019.7 0.0
23/12:30am 13.5 12.2 12.4 93 0.6 W 11 15 6 8 1019.8 1019.8 0.0
23/12:00am 13.5 12.5 12.4 93 0.6 W 9 17 5 9 1019.1 1019.1 0.0
 
Date/Time
EDT
Tmp

°C
App
Tmp
°C
Dew
Point
°C
Rel
Hum
%
Delta-T

°C
Wind Press
QNH
hPa
Press
MSL
hPa
Rain
since
9 am
mm
Dir
 
Spd
km/h
Gust
km/h
Spd
kts
Gust
kts
22/11:30pm 13.6 11.9 12.5 93 0.6 WNW 13 22 7 12 1018.8 1018.8 0.0
22/11:00pm 14.0 12.3 12.6 91 0.8 WNW 13 19 7 10 1019.0 1019.0 0.0
22/10:30pm 14.8 13.6 12.8 88 1.1 W 11 17 6 9 1019.3 1019.3 0.0
22/10:00pm 16.8 15.7 11.9 73 2.7 WSW 9 15 5 8 1019.1 1019.1 0.0
22/09:30pm 18.4 17.3 10.8 61 4.1 WSW 7 15 4 8 1018.9 1018.9 0.0
22/09:00pm 20.4 17.9 11.1 55 5.2 W 15 26 8 14 1018.3 1018.3 0.0
22/08:30pm 21.4 20.9 12.0 55 5.3 WNW 6 11 3 6 1017.9 1017.9 0.0
22/08:00pm 22.8 22.4 11.2 48 6.5 WSW 4 9 2 5 1017.3 1017.2 0.0
22/07:30pm 23.4 22.1 11.1 46 6.9 S 9 17 5 9 1016.7 1016.6 0.0
22/07:00pm 27.0 27.4 13.7 44 7.9 SW 4 6 2 3 1015.8 1015.8 0.0
22/06:30pm 27.8 27.3 12.6 39 9.0 NW 7 11 4 6 1015.2 1015.2 0.0
22/06:00pm 27.6 27.3 13.2 41 8.6 NNW 7 15 4 8 1015.2 1015.2 0.0
22/05:30pm 27.9 26.9 12.3 38 9.2 NW 9 15 5 8 1015.4 1015.4 0.0
22/05:00pm 27.7 25.6 11.3 36 9.5 NW 13 19 7 10 1015.5 1015.5 0.0
22/04:30pm 28.3 24.4 9.6 31 10.5 N 20 26 11 14 1015.5 1015.5 0.0
22/04:00pm 31.3 29.2 11.1 29 11.8 NW 13 20 7 11 1015.6 1015.6 0.0
22/03:30pm 29.4 28.7 11.9 34 10.3 NNW 7 15 4 8 1016.1 1016.0 0.0
22/03:00pm 29.5 27.5 10.1 30 11.1 NW 11 17 6 9 1016.4 1016.3 0.0
22/02:30pm 29.8 28.0 10.9 31 10.9 NNW 11 19 6 10 1016.6 1016.5 0.0
22/02:00pm 30.6 28.6 10.0 28 11.8 NW 11 19 6 10 1016.8 1016.7 0.0
22/01:30pm 30.0 27.2 8.4 26 12.0 NW 13 22 7 12 1017.0 1016.9 0.0
22/01:00pm 30.1 28.1 8.5 26 12.0 N 9 17 5 9 1017.1 1017.0 0.0
22/12:30pm 29.6 25.8 7.5 25 12.1 N 17 24 9 13 1017.5 1017.5 0.0
22/12:00pm 28.8 25.2 8.5 28 11.2 NNW 17 28 9 15 1017.9 1017.9 0.0
22/11:30am 29.4 25.8 8.5 27 11.6 NNW 17 28 9 15 1018.1 1018.1 0.0
22/11:00am 26.7 22.9 9.1 33 9.7 NNW 19 32 10 17 1018.6 1018.6 0.0
22/10:30am 25.9 22.7 10.1 37 8.9 NNW 17 30 9 16 1018.7 1018.7 0.0
22/10:00am 25.6 21.5 10.2 38 8.6 NNW 22 37 12 20 1018.9 1018.9 0.0
22/09:30am 24.6 20.5 10.1 40 8.1 NNW 22 35 12 19 1018.8 1018.8 0.0
22/09:00am 23.5 20.8 10.2 43 7.4 NNW 15 20 8 11 1018.8 1018.8 0.0
22/08:30am 21.9 19.1 10.1 47 6.5 NNW 15 20 8 11 1018.6 1018.6 0.0
22/08:00am 20.3 17.1 10.1 52 5.5 NNW 17 24 9 13 1018.7 1018.7 0.0
22/07:30am 18.8 15.2 9.8 56 4.8 NNW 19 28 10 15 1018.6 1018.6 0.0
22/07:00am 17.5 13.9 9.9 61 4.1 N 19 28 10 15 1018.7 1018.7 0.0
22/06:30am 17.0 13.8 9.9 63 3.8 NNW 17 24 9 13 1018.8 1018.8 0.0
22/06:00am 16.9 13.3 9.8 63 3.8 N 19 24 10 13 1018.8 1018.8 0.0
22/05:30am 16.1 12.7 9.1 63 3.6 N 17 24 9 13 1018.8 1018.8 0.0
22/05:00am 14.9 12.1 8.6 66 3.2 N 13 20 7 11 1018.7 1018.7 0.0
22/04:30am 13.3 11.6 8.2 71 2.6 NNW 7 9 4 5 1019.1 1019.1 0.0
22/04:00am 15.2 12.5 8.9 66 3.2 N 13 19 7 10 1019.1 1019.1 0.0
22/03:30am 15.0 12.3 9.1 68 3.1 N 13 17 7 9 1019.3 1019.3 0.0
22/03:00am 14.6 12.8 9.4 71 2.7 N 9 13 5 7 1019.9 1019.9 0.0
22/02:30am 14.1 12.3 9.3 73 2.5 N 9 13 5 7 1020.2 1020.2 0.0
22/02:00am 13.8 12.0 9.3 74 2.3 N 9 11 5 6 1020.8 1020.7 0.0
22/01:30am 15.1 12.9 9.5 69 2.9 N 11 15 6 8 1021.2 1021.2 0.0
22/01:00am 14.9 12.7 9.5 70 2.8 NNW 11 15 6 8 1021.4 1021.4 0.0
22/12:30am 14.5 12.4 9.9 74 2.4 NNW 11 15 6 8 1021.6 1021.6 0.0
22/12:00am 13.2 11.6 10.2 82 1.6 N 9 11 5 6 1022.1 1022.1 0.0
 
Date/Time
EDT
Tmp

°C
App
Tmp
°C
Dew
Point
°C
Rel
Hum
%
Delta-T

°C
Wind Press
QNH
hPa
Press
MSL
hPa
Rain
since
9 am
mm
Dir
 
Spd
km/h
Gust
km/h
Spd
kts
Gust
kts
21/11:30pm 12.6 12.0 10.3 86 1.2 N 4 7 2 4 1022.5 1022.5 0.0
21/11:00pm 13.2 12.2 10.2 82 1.6 N 6 9 3 5 1023.1 1023.1 0.0
21/10:30pm 14.2 14.1 10.8 80 1.8 N 2 6 1 3 1023.1 1023.1 0.0
21/10:00pm 15.4 15.1 11.4 77 2.2 ESE 4 4 2 2 1023.4 1023.4 0.0
21/09:30pm 15.9 15.6 11.3 74 2.5 ESE 4 6 2 3 1023.5 1023.5 0.0
21/09:00pm 16.6 15.9 11.3 71 2.9 E 6 7 3 4 1023.3 1023.3 0.0
21/08:30pm 17.0 16.3 11.5 70 3.0 E 6 9 3 5 1023.3 1023.3 0.0
21/08:00pm 18.1 16.9 11.7 66 3.5 E 9 13 5 7 1023.2 1023.2 0.0
21/07:30pm 19.2 17.6 11.5 61 4.3 ESE 11 13 6 7 1023.1 1023.1 0.0
21/07:00pm 20.1 18.5 11.6 58 4.7 ESE 11 17 6 9 1022.8 1022.8 0.0
21/06:30pm 21.3 18.9 11.3 53 5.6 ESE 15 19 8 10 1022.7 1022.7 0.0
21/06:00pm 22.4 20.0 11.5 50 6.1 ESE 15 22 8 12 1022.9 1022.9 0.0
21/05:30pm 24.0 21.6 11.3 45 7.2 SE 15 20 8 11 1022.9 1022.9 0.0
21/05:00pm 24.4 22.0 11.4 44 7.4 SE 15 22 8 12 1022.8 1022.8 0.0
21/04:30pm 24.8 22.3 11.0 42 7.8 SE 15 19 8 10 1022.9 1022.9 0.0
21/04:00pm 24.9 22.7 10.8 41 7.9 SE 13 19 7 10 1023.2 1023.2 0.0
21/03:30pm 24.9 22.8 11.1 42 7.8 SE 13 20 7 11 1023.5 1023.5 0.0
21/03:00pm 24.6 22.0 10.8 42 7.8 SE 15 20 8 11 1023.8 1023.8 0.0
21/02:30pm 23.9 21.3 10.6 43 7.4 SE 15 20 8 11 1024.3 1024.3 0.0
21/02:00pm 23.9 21.5 11.3 45 7.1 SE 15 19 8 10 1024.7 1024.8 0.0
21/01:30pm 23.1 20.2 10.9 46 6.8 SE 17 26 9 14 1025.1 1025.1 0.0
21/01:00pm 22.9 21.4 10.7 46 6.8 SE 9 20 5 11 1025.4 1025.4 0.0
21/12:30pm 22.2 20.4 10.7 48 6.4 ESE 11 19 6 10 1025.7 1025.7 0.0
21/12:00pm 21.5 19.6 10.6 50 6.0 SE 11 19 6 10 1025.9 1025.9 0.0
21/11:30am 19.6 17.6 10.3 55 5.1 SE 11 17 6 9 1026.1 1026.1 0.0
21/11:00am 17.7 15.4 9.1 57 4.5 SE 11 17 6 9 1026.2 1026.2 0.0
21/10:30am 16.6 14.6 8.8 60 4.1 ESE 9 13 5 7 1026.6 1026.6 0.0
21/10:00am 15.0 12.5 8.3 64 3.4 ESE 11 15 6 8 1026.6 1026.6 0.0
21/09:30am 13.4 11.7 8.5 72 2.5 SE 7 11 4 6 1026.9 1026.9 0.0
21/09:00am 12.0 10.2 7.9 76 2.0 ESE 7 11 4 6 1027.0 1027.0 0.0
21/08:30am 10.4 10.0 9.6 95 0.4 NNE 2 6 1 3 1026.8 1026.8 0.0
21/08:00am 6.5 4.9 6.2 98 0.1 N 4 7 2 4 1026.6 1026.6 0.0
21/07:30am 4.5 1.5 4.2 98 0.1 N 9 11 5 6 1026.4 1026.4 0.0
21/07:00am 3.6 0.4 3.2 97 0.2 NNW 9 11 5 6 1026.2 1026.2 0.0
21/06:30am 3.6 0.8 3.2 97 0.2 N 7 9 4 5 1025.9 1025.9 0.0
21/06:00am 4.3 1.6 3.9 97 0.2 N 7 9 4 5 1025.7 1025.7 0.0
21/05:30am 4.6 2.1 4.0 96 0.3 N 6 7 3 4 1025.8 1025.8 0.0
21/05:00am 6.1 4.7 5.4 95 0.3 NE 2 4 1 2 1025.9 1025.9 0.0
21/04:30am 7.0 5.7 5.9 93 0.5 ENE 2 4 1 2 1025.8 1025.8 0.0
21/04:00am 7.7 5.5 6.2 90 0.7 SE 7 13 4 7 1025.9 1025.9 0.0
21/03:30am 8.7 6.7 7.2 90 0.7 ESE 7 9 4 5 1026.3 1026.3 0.0
21/03:00am 8.8 6.4 7.1 89 0.8 ESE 9 11 5 6 1026.5 1026.5 0.0
21/02:30am 8.6 6.6 7.1 90 0.7 ESE 7 11 4 6 1026.8 1026.8 0.0
21/02:00am 7.9 5.3 6.2 89 0.8 ESE 9 13 5 7 1027.1 1027.1 0.0
21/01:30am 8.2 4.9 6.3 88 0.9 ESE 13 17 7 9 1027.3 1027.3 0.0
21/01:00am 8.5 5.6 6.5 87 0.9 ESE 11 17 6 9 1027.8 1027.8 0.0
21/12:30am 8.2 5.6 6.3 88 0.9 ESE 9 13 5 7 1028.1 1028.1 0.0
21/12:00am 8.6 5.7 6.7 88 0.9 ESE 11 17 6 9 1028.1 1028.1 0.0
 
Date/Time
EDT
Tmp

°C
App
Tmp
°C
Dew
Point
°C
Rel
Hum
%
Delta-T

°C
Wind Press
QNH
hPa
Press
MSL
hPa
Rain
since
9 am
mm
Dir
 
Spd
km/h
Gust
km/h
Spd
kts
Gust
kts
20/11:30pm 9.1 6.0 7.1 87 1.0 ESE 13 17 7 9 1028.4 1028.5 0.0
20/11:00pm 9.2 6.5 7.2 87 0.9 ESE 11 17 6 9 1028.5 1028.6 0.0
20/10:30pm 9.6 7.0 7.7 88 0.9 ESE 11 15 6 8 1028.6 1028.7 0.0
20/10:00pm 10.0 7.5 8.1 88 0.9 ESE 11 17 6 9 1028.6 1028.7 0.0
20/09:30pm 9.9 7.3 7.8 87 1.0 ESE 11 17 6 9 1028.6 1028.7 0.0
20/09:00pm 9.8 7.6 7.9 88 0.9 ESE 9 13 5 7 1028.5 1028.6 0.0
20/08:30pm 10.1 7.8 7.5 84 1.3 SE 9 13 5 7 1028.3 1028.4 0.0
20/08:00pm 11.4 8.1 8.1 80 1.6 SE 15 22 8 12 1028.1 1028.1 0.0
20/07:30pm 12.2 8.5 8.1 76 2.0 SSE 17 26 9 14 1028.1 1028.1 0.0
20/07:00pm 13.1 8.9 8.2 72 2.4 SE 20 30 11 16 1028.1 1028.1 0.0
20/06:30pm 13.8 9.5 8.0 68 2.9 SE 20 30 11 16 1028.1 1028.1 0.0
20/06:00pm 14.8 10.6 8.1 64 3.4 SE 20 28 11 15 1028.1 1028.1 0.0
20/05:30pm 15.6 11.3 7.9 60 3.9 SE 20 30 11 16 1028.1 1028.1 0.0
20/05:00pm 15.3 11.1 7.3 59 4.0 SE 19 28 10 15 1028.2 1028.3 0.0
20/04:30pm 15.2 10.1 6.2 55 4.4 SE 22 37 12 20 1028.2 1028.3 0.0
20/04:00pm 15.7 11.3 6.7 55 4.4 SE 19 30 10 16 1028.4 1028.5 0.0
20/03:30pm 16.4 10.7 6.8 53 4.8 SE 26 37 14 20 1028.5 1028.6 0.0
20/03:00pm 16.2 11.2 4.6 46 5.5 SE 20 33 11 18 1028.6 1028.7 0.0
20/02:30pm 16.0 10.0 3.1 42 5.9 SE 24 33 13 18 1029.0 1029.1 0.0
20/02:00pm 15.4 9.5 3.9 46 5.3 ESE 24 33 13 18 1029.1 1029.2 0.0
20/01:30pm 15.2 9.8 2.4 42 5.8 SSE 20 28 11 15 1029.5 1029.5 0.0
20/01:00pm 15.1 9.4 3.0 44 5.5 SE 22 32 12 17 1029.6 1029.6 0.0
20/12:30pm 14.8 9.1 2.7 44 5.5 ESE 22 33 12 18 1029.9 1029.9 0.0
20/12:00pm 14.7 9.1 3.2 46 5.2 SE 22 37 12 20 1030.3 1030.3 0.0

Latest Capital City Observations: Canberra | Sydney | Melbourne | Brisbane | Adelaide | Perth | Hobart | Darwin

Other Formats:

Comma delimited format used in spreadsheet applications
http://www.bom.gov.au/fwo/IDV60901/IDV60901.94863.axf

JavaScript Object Notation format (JSON) in row-major order
http://www.bom.gov.au/fwo/IDV60901/IDV60901.94863.json